Cheektowaga, NY (14227)

6:11 PM EDT en Septiembre 21, 2014 (GMT -0400)
Cleve Hill | Change Station
CLOSE
Current Station
Estación meteorológica personal
Location: Cheektowaga, NY
Altura: 686 ft
Estaciones meteorológicas cercanas

Alt 686 ft 42.94 °N, 78.77 °W | Updated 1 minute ago

Partly Cloudy
Parcialmente nublado
68.5 ° F
Sensación térmica 68.5 ° F
N
5.0
Viento Variable Viento desde OSO
Gusts 13.0 mph

Hoy
Alta -- | Baja -- ° F
--% Posibilidad de precipitaciones
Ayer
Alta -- | Baja -- ° F
Precip. -- pul
7:01 AM 7:14 PM
Creciente menguante, 5% visible
Presión 29.61 pul
Visibilidad 10.0 Millas
Nubes Baja 3000 ft
Baja 6500 ft
Baja 18000 ft
Punto de rocío 56 ° F
Humedad 64%
Precipitaciones 0.16 pul
Espesor de la nieve No disponible.
UV 1 de una escala de 12
Polen .50 de una escala de 12
PM2.5 Buena
Flu Activity No disponible.
METAR KBUF 212154Z 25018G30KT 10SM FEW030 FEW065 FEW180 20/12 A2961 RMK AO2 PK WND 23033/2121 SLP025 MDT CU DSNT E SW NW-N T02000122

More Conditions Fewer Conditions

Presión 29.61 pul
Visibilidad 10.0 Millas
Nubes Baja 3000 ft
Baja 6500 ft
Baja 18000 ft
Punto de rocío 56 ° F
Humedad 64%
Precipitaciones 0.16 pul
Espesor de la nieve No disponible.
UV 1 de una escala de 12
Polen .50 de una escala de 12
PM2.5 Buena
Flu Activity No disponible.
METAR KBUF 212154Z 25018G30KT 10SM FEW030 FEW065 FEW180 20/12 A2961 RMK AO2 PK WND 23033/2121 SLP025 MDT CU DSNT E SW NW-N T02000122

More Conditions Fewer Conditions

10-Day Weather Forecast

Almanac

Astronomía

Sep. 21, 2014 Salida Puesta
Hora real 7:01 AM EDT 7:14 PM EDT
Crepúsculo civil 6:32 AM EDT 7:42 PM EDT
Crepúsculo náutico 5:59 AM EDT 8:15 PM EDT
Crepúsculo astronómico 5:25 AM EDT 8:49 PM EDT
Luna 4:30 AM EDT 5:51 PM EDT
Horas de luz 13h 09m
Horas de luz
12h 12m
Tomorrow will be 2m 54s shorter.
Creciente menguante, 5% of the Moon is Illuminated
Hoy
Creciente menguante
Sep 24
Nueva
Oct 1
Cuarto creciente
Oct 8
Luna llena
Oct 15
Cuarto menguante

Extremos de hoy

Máximos del estado Bajos del estado

Community

WunderPhotos

Upload Photos

1,755,269 ¡fotos cargadas!

WunderBlogs® & News

Nearby

Calidad del aire

  Calidad del aire Índice AQ Contaminante
Ayer Moderada
PM2.5
Ayer Buena
OZONE
Real Buena
PM2.5
Domingo Buena
PM2.5
Domingo Buena
OZONE
Lunes Buena
PM2.5
Lunes Buena
OZONE

Grosos de nieve

Estación Profundido Altura
No tenemos constancia de nieve nueva.

Actividad de terremotos

Ciudad Distance Mag. Tiempo y dato
No hay informes recientes de la actividad sísmica.
Magnitud mínima muestra es 2,5.

Temperaturas de aguas costeras

Lugar Temperatura
Buffalo, NY 66.9 ° F

Estaciones meteorológicas cercanas